OEWJ

Details ICAO OEWJ (EJH)
Name WEJH
Region Saudi Arabia
Timezone Asia/Riyadh (UTC+3.0)
Plans Departing 7
Arriving 6
Stats Elevation 66 ft / 20 m (AMSL)
Location 26.198554° 36.476104°
Runways 1
Magnetic Variation 4.086° E
Sunrise 2017-12-12 04:13:30 UTC / 2017-12-12 07:13:30 Local
Sunset 2017-12-12 14:44:55 UTC / 2017-12-12 17:44:55 Local
Advertisement - Login to hide

Runways

ID Width Length Bearing (true) Bearing (mag) Surface Threshold Offset Overrun Length
15 148 ft / 45 m 10,037 ft / 3,059 m 150.69° 146.60° Asphalt 0 ft / 0 m 197 ft / 60 m
33 148 ft / 45 m 10,037 ft / 3,059 m 330.70° 326.61° Asphalt 0 ft / 0 m 197 ft / 60 m

Approach Navaids

Runway Type Ident Frequency Range Bearing (true) Bearing (mag) Slope Elevation
33 Localiser IWEJ 110.70 MHz 18 nm / 33 km 330.69° 326.60° - 66 ft / 20 m (AMSL)
33 Glidescope IWEJ 110.70 MHz 10 nm / 19 km 330.70° 326.61° 3.00° 66 ft / 20 m (AMSL)

Map

Weather


0- 5 10 15 20 25 30 35+ Temperature / ° C

Clouds and Precipitation
Forecast for 2017-12-12 00:00 UTC. Updated 21 minutes ago

Ground ~20,000 ft ~40,000 ft Winds

METAR

OEWJ 112300Z 06004KT CAVOK 19/09 Q1017 NOSIG

TAF

Not found

Frequencies

Unicom 122.80 MHz CTAF
Warning: Do not use this data for real-world aviation or navigation. No guarantee of current accuracy is given.